sensor_id;sensor_type;location;lat;lon;timestamp;P1;durP1;ratioP1;P2;durP2;ratioP2
59824;SDS011;45703;50.898;6.054;2023-07-31T00:01:17;8.52;;;3.00;;
59824;SDS011;45703;50.898;6.054;2023-07-31T00:03:42;9.50;;;2.90;;
59824;SDS011;45703;50.898;6.054;2023-07-31T00:06:08;10.32;;;3.00;;
59824;SDS011;45703;50.898;6.054;2023-07-31T00:08:33;9.43;;;2.90;;
59824;SDS011;45703;50.898;6.054;2023-07-31T00:10:58;12.95;;;3.05;;
59824;SDS011;45703;50.898;6.054;2023-07-31T00:13:24;9.10;;;3.00;;
59824;SDS011;45703;50.898;6.054;2023-07-31T00:15:49;8.93;;;2.78;;
59824;SDS011;45703;50.898;6.054;2023-07-31T00:18:15;10.60;;;2.85;;
59824;SDS011;45703;50.898;6.054;2023-07-31T00:20:40;8.32;;;2.60;;
59824;SDS011;45703;50.898;6.054;2023-07-31T00:23:06;7.78;;;2.75;;
59824;SDS011;45703;50.898;6.054;2023-07-31T00:25:31;9.48;;;2.95;;
59824;SDS011;45703;50.898;6.054;2023-07-31T00:27:57;7.88;;;2.50;;
59824;SDS011;45703;50.898;6.054;2023-07-31T00:30:22;9.10;;;2.55;;
59824;SDS011;45703;50.898;6.054;2023-07-31T00:32:47;9.65;;;2.80;;
59824;SDS011;45703;50.898;6.054;2023-07-31T00:35:13;9.00;;;3.03;;
59824;SDS011;45703;50.898;6.054;2023-07-31T00:37:38;10.82;;;2.97;;
59824;SDS011;45703;50.898;6.054;2023-07-31T00:40:04;9.68;;;3.28;;
59824;SDS011;45703;50.898;6.054;2023-07-31T00:42:29;8.40;;;2.80;;
59824;SDS011;45703;50.898;6.054;2023-07-31T00:44:55;9.02;;;2.67;;
59824;SDS011;45703;50.898;6.054;2023-07-31T00:47:20;9.02;;;3.30;;
59824;SDS011;45703;50.898;6.054;2023-07-31T00:49:46;9.18;;;2.58;;
59824;SDS011;45703;50.898;6.054;2023-07-31T00:52:11;9.95;;;2.50;;
59824;SDS011;45703;50.898;6.054;2023-07-31T00:54:37;8.88;;;2.88;;
59824;SDS011;45703;50.898;6.054;2023-07-31T00:57:03;9.07;;;2.90;;
59824;SDS011;45703;50.898;6.054;2023-07-31T00:59:28;7.78;;;2.80;;
59824;SDS011;45703;50.898;6.054;2023-07-31T01:01:54;9.50;;;2.50;;
59824;SDS011;45703;50.898;6.054;2023-07-31T01:04:20;9.65;;;2.92;;
59824;SDS011;45703;50.898;6.054;2023-07-31T01:12:13;7.45;;;2.20;;
59824;SDS011;45703;50.898;6.054;2023-07-31T01:14:42;7.63;;;2.40;;
59824;SDS011;45703;50.898;6.054;2023-07-31T01:17:16;10.75;;;2.88;;
59824;SDS011;45703;50.898;6.054;2023-07-31T01:19:41;9.50;;;2.83;;
59824;SDS011;45703;50.898;6.054;2023-07-31T01:27:49;7.82;;;2.67;;
59824;SDS011;45703;50.898;6.054;2023-07-31T01:30:28;8.88;;;2.85;;
59824;SDS011;45703;50.898;6.054;2023-07-31T01:33:00;9.38;;;3.08;;
59824;SDS011;45703;50.898;6.054;2023-07-31T01:35:31;9.48;;;2.80;;
59824;SDS011;45703;50.898;6.054;2023-07-31T01:37:58;8.50;;;3.00;;
59824;SDS011;45703;50.898;6.054;2023-07-31T01:40:23;8.95;;;3.35;;
59824;SDS011;45703;50.898;6.054;2023-07-31T01:42:49;8.27;;;3.10;;
59824;SDS011;45703;50.898;6.054;2023-07-31T01:45:14;9.65;;;3.40;;
59824;SDS011;45703;50.898;6.054;2023-07-31T01:47:40;9.23;;;2.75;;
59824;SDS011;45703;50.898;6.054;2023-07-31T01:50:05;8.60;;;2.92;;
59824;SDS011;45703;50.898;6.054;2023-07-31T01:52:31;8.52;;;2.90;;
59824;SDS011;45703;50.898;6.054;2023-07-31T01:54:56;8.60;;;2.92;;
59824;SDS011;45703;50.898;6.054;2023-07-31T01:57:21;9.40;;;3.03;;
59824;SDS011;45703;50.898;6.054;2023-07-31T01:59:47;10.40;;;3.28;;
59824;SDS011;45703;50.898;6.054;2023-07-31T02:02:12;10.23;;;3.60;;
59824;SDS011;45703;50.898;6.054;2023-07-31T02:04:38;8.80;;;3.03;;
59824;SDS011;45703;50.898;6.054;2023-07-31T02:07:04;9.40;;;3.13;;
59824;SDS011;45703;50.898;6.054;2023-07-31T02:09:30;8.73;;;3.17;;
59824;SDS011;45703;50.898;6.054;2023-07-31T02:11:55;11.45;;;3.65;;
59824;SDS011;45703;50.898;6.054;2023-07-31T02:14:21;8.60;;;2.90;;
59824;SDS011;45703;50.898;6.054;2023-07-31T02:16:46;9.48;;;3.05;;
59824;SDS011;45703;50.898;6.054;2023-07-31T02:19:11;9.57;;;3.17;;
59824;SDS011;45703;50.898;6.054;2023-07-31T02:21:37;11.38;;;3.60;;
59824;SDS011;45703;50.898;6.054;2023-07-31T02:24:02;8.65;;;3.42;;
59824;SDS011;45703;50.898;6.054;2023-07-31T02:26:28;9.23;;;3.25;;
59824;SDS011;45703;50.898;6.054;2023-07-31T02:28:53;8.48;;;2.88;;
59824;SDS011;45703;50.898;6.054;2023-07-31T02:31:18;11.82;;;3.40;;
59824;SDS011;45703;50.898;6.054;2023-07-31T02:33:44;13.15;;;3.53;;
59824;SDS011;45703;50.898;6.054;2023-07-31T02:36:09;8.23;;;3.00;;
59824;SDS011;45703;50.898;6.054;2023-07-31T02:38:34;8.35;;;2.90;;
59824;SDS011;45703;50.898;6.054;2023-07-31T02:41:00;10.52;;;3.42;;
59824;SDS011;45703;50.898;6.054;2023-07-31T02:43:25;10.38;;;3.30;;
59824;SDS011;45703;50.898;6.054;2023-07-31T02:45:53;8.07;;;2.95;;
59824;SDS011;45703;50.898;6.054;2023-07-31T02:48:19;9.95;;;3.50;;
59824;SDS011;45703;50.898;6.054;2023-07-31T02:50:45;8.70;;;3.22;;
59824;SDS011;45703;50.898;6.054;2023-07-31T02:53:11;9.05;;;3.58;;
59824;SDS011;45703;50.898;6.054;2023-07-31T02:55:36;11.23;;;3.72;;
59824;SDS011;45703;50.898;6.054;2023-07-31T02:58:05;8.40;;;3.13;;
59824;SDS011;45703;50.898;6.054;2023-07-31T03:00:30;8.77;;;3.33;;
59824;SDS011;45703;50.898;6.054;2023-07-31T03:02:55;9.32;;;3.83;;
59824;SDS011;45703;50.898;6.054;2023-07-31T03:05:21;9.07;;;3.33;;
59824;SDS011;45703;50.898;6.054;2023-07-31T03:07:46;9.85;;;3.40;;
59824;SDS011;45703;50.898;6.054;2023-07-31T03:10:11;8.38;;;2.88;;
59824;SDS011;45703;50.898;6.054;2023-07-31T03:12:40;8.82;;;3.20;;
59824;SDS011;45703;50.898;6.054;2023-07-31T03:15:05;7.65;;;3.33;;
59824;SDS011;45703;50.898;6.054;2023-07-31T03:17:31;10.43;;;3.70;;
59824;SDS011;45703;50.898;6.054;2023-07-31T03:19:57;9.80;;;3.67;;
59824;SDS011;45703;50.898;6.054;2023-07-31T03:22:22;9.88;;;3.53;;
59824;SDS011;45703;50.898;6.054;2023-07-31T03:24:47;8.15;;;3.30;;
59824;SDS011;45703;50.898;6.054;2023-07-31T03:27:13;9.07;;;3.92;;
59824;SDS011;45703;50.898;6.054;2023-07-31T03:29:38;8.52;;;3.55;;
59824;SDS011;45703;50.898;6.054;2023-07-31T03:32:03;8.65;;;3.33;;
59824;SDS011;45703;50.898;6.054;2023-07-31T03:34:29;10.50;;;3.95;;
59824;SDS011;45703;50.898;6.054;2023-07-31T03:36:57;11.13;;;3.45;;
59824;SDS011;45703;50.898;6.054;2023-07-31T03:39:22;9.45;;;3.88;;
59824;SDS011;45703;50.898;6.054;2023-07-31T03:41:48;10.23;;;3.55;;
59824;SDS011;45703;50.898;6.054;2023-07-31T03:44:13;9.15;;;3.67;;
59824;SDS011;45703;50.898;6.054;2023-07-31T03:46:39;8.73;;;3.38;;
59824;SDS011;45703;50.898;6.054;2023-07-31T03:49:04;9.13;;;4.03;;
59824;SDS011;45703;50.898;6.054;2023-07-31T03:51:29;8.70;;;3.58;;
59824;SDS011;45703;50.898;6.054;2023-07-31T03:53:55;8.70;;;3.15;;
59824;SDS011;45703;50.898;6.054;2023-07-31T03:56:20;9.73;;;3.83;;
59824;SDS011;45703;50.898;6.054;2023-07-31T03:58:45;8.15;;;3.40;;
59824;SDS011;45703;50.898;6.054;2023-07-31T04:01:11;10.27;;;3.60;;
59824;SDS011;45703;50.898;6.054;2023-07-31T04:03:36;9.15;;;3.90;;
59824;SDS011;45703;50.898;6.054;2023-07-31T04:06:01;9.20;;;3.55;;
59824;SDS011;45703;50.898;6.054;2023-07-31T04:08:27;8.27;;;4.00;;
59824;SDS011;45703;50.898;6.054;2023-07-31T04:10:53;8.48;;;3.15;;
59824;SDS011;45703;50.898;6.054;2023-07-31T04:13:18;9.65;;;3.47;;
59824;SDS011;45703;50.898;6.054;2023-07-31T04:15:47;8.10;;;3.22;;
59824;SDS011;45703;50.898;6.054;2023-07-31T04:18:14;8.95;;;3.30;;
59824;SDS011;45703;50.898;6.054;2023-07-31T04:20:40;8.55;;;3.60;;
59824;SDS011;45703;50.898;6.054;2023-07-31T04:23:05;10.25;;;3.53;;
59824;SDS011;45703;50.898;6.054;2023-07-31T04:25:30;8.98;;;3.30;;
59824;SDS011;45703;50.898;6.054;2023-07-31T04:27:56;8.95;;;3.30;;
59824;SDS011;45703;50.898;6.054;2023-07-31T04:30:22;8.75;;;3.38;;
59824;SDS011;45703;50.898;6.054;2023-07-31T04:32:47;9.52;;;3.53;;
59824;SDS011;45703;50.898;6.054;2023-07-31T04:35:14;8.10;;;3.33;;
59824;SDS011;45703;50.898;6.054;2023-07-31T04:37:39;8.98;;;3.85;;
59824;SDS011;45703;50.898;6.054;2023-07-31T04:40:04;9.40;;;3.55;;
59824;SDS011;45703;50.898;6.054;2023-07-31T04:42:30;8.15;;;3.20;;
59824;SDS011;45703;50.898;6.054;2023-07-31T04:44:56;8.43;;;3.15;;
59824;SDS011;45703;50.898;6.054;2023-07-31T04:47:21;8.50;;;3.50;;
59824;SDS011;45703;50.898;6.054;2023-07-31T04:49:46;8.32;;;3.08;;
59824;SDS011;45703;50.898;6.054;2023-07-31T04:52:12;7.22;;;3.15;;
59824;SDS011;45703;50.898;6.054;2023-07-31T04:54:37;7.53;;;3.05;;
59824;SDS011;45703;50.898;6.054;2023-07-31T04:57:03;8.40;;;3.22;;
59824;SDS011;45703;50.898;6.054;2023-07-31T04:59:28;9.57;;;3.08;;
59824;SDS011;45703;50.898;6.054;2023-07-31T05:01:53;8.82;;;3.28;;
59824;SDS011;45703;50.898;6.054;2023-07-31T05:04:19;8.30;;;3.20;;
59824;SDS011;45703;50.898;6.054;2023-07-31T05:06:44;8.15;;;3.03;;
59824;SDS011;45703;50.898;6.054;2023-07-31T05:09:09;7.82;;;2.95;;
59824;SDS011;45703;50.898;6.054;2023-07-31T05:11:35;8.65;;;3.10;;
59824;SDS011;45703;50.898;6.054;2023-07-31T05:14:00;7.53;;;2.78;;
59824;SDS011;45703;50.898;6.054;2023-07-31T05:16:26;8.38;;;2.67;;
59824;SDS011;45703;50.898;6.054;2023-07-31T05:18:51;7.60;;;2.95;;
59824;SDS011;45703;50.898;6.054;2023-07-31T05:21:17;8.25;;;2.50;;
59824;SDS011;45703;50.898;6.054;2023-07-31T05:23:42;7.07;;;2.95;;
59824;SDS011;45703;50.898;6.054;2023-07-31T05:26:07;7.63;;;2.80;;
59824;SDS011;45703;50.898;6.054;2023-07-31T05:28:35;7.57;;;3.00;;
59824;SDS011;45703;50.898;6.054;2023-07-31T05:31:01;9.52;;;2.90;;
59824;SDS011;45703;50.898;6.054;2023-07-31T05:33:27;8.63;;;3.17;;
59824;SDS011;45703;50.898;6.054;2023-07-31T05:35:53;8.05;;;3.03;;
59824;SDS011;45703;50.898;6.054;2023-07-31T05:38:18;7.40;;;3.10;;
59824;SDS011;45703;50.898;6.054;2023-07-31T05:40:44;8.77;;;2.63;;
59824;SDS011;45703;50.898;6.054;2023-07-31T05:43:09;7.85;;;2.78;;
59824;SDS011;45703;50.898;6.054;2023-07-31T05:45:35;7.88;;;2.92;;
59824;SDS011;45703;50.898;6.054;2023-07-31T05:48:00;7.38;;;2.83;;
59824;SDS011;45703;50.898;6.054;2023-07-31T05:50:26;7.65;;;3.13;;
59824;SDS011;45703;50.898;6.054;2023-07-31T05:52:51;8.82;;;2.75;;
59824;SDS011;45703;50.898;6.054;2023-07-31T05:55:17;7.95;;;2.75;;
59824;SDS011;45703;50.898;6.054;2023-07-31T05:57:42;7.28;;;2.78;;
59824;SDS011;45703;50.898;6.054;2023-07-31T06:00:08;7.25;;;2.78;;
59824;SDS011;45703;50.898;6.054;2023-07-31T06:02:33;9.40;;;2.92;;
59824;SDS011;45703;50.898;6.054;2023-07-31T06:05:01;7.65;;;3.03;;
59824;SDS011;45703;50.898;6.054;2023-07-31T06:07:28;8.52;;;2.85;;
59824;SDS011;45703;50.898;6.054;2023-07-31T06:09:54;8.35;;;2.45;;
59824;SDS011;45703;50.898;6.054;2023-07-31T06:12:20;7.07;;;2.60;;
59824;SDS011;45703;50.898;6.054;2023-07-31T06:14:45;9.68;;;2.90;;
59824;SDS011;45703;50.898;6.054;2023-07-31T06:17:11;9.45;;;2.67;;
59824;SDS011;45703;50.898;6.054;2023-07-31T06:19:36;9.60;;;2.85;;
59824;SDS011;45703;50.898;6.054;2023-07-31T06:22:02;8.82;;;2.78;;
59824;SDS011;45703;50.898;6.054;2023-07-31T06:24:27;6.70;;;2.53;;
59824;SDS011;45703;50.898;6.054;2023-07-31T06:26:53;8.48;;;3.05;;
59824;SDS011;45703;50.898;6.054;2023-07-31T06:29:18;8.90;;;2.70;;
59824;SDS011;45703;50.898;6.054;2023-07-31T06:31:45;9.15;;;2.92;;
59824;SDS011;45703;50.898;6.054;2023-07-31T06:34:11;9.65;;;2.75;;
59824;SDS011;45703;50.898;6.054;2023-07-31T06:36:36;7.97;;;2.83;;
59824;SDS011;45703;50.898;6.054;2023-07-31T06:39:01;7.35;;;2.60;;
59824;SDS011;45703;50.898;6.054;2023-07-31T06:41:27;11.00;;;2.22;;
59824;SDS011;45703;50.898;6.054;2023-07-31T06:43:52;9.63;;;2.83;;
59824;SDS011;45703;50.898;6.054;2023-07-31T06:46:18;8.05;;;2.40;;
59824;SDS011;45703;50.898;6.054;2023-07-31T06:48:43;7.28;;;2.50;;
59824;SDS011;45703;50.898;6.054;2023-07-31T06:51:09;9.02;;;2.90;;
59824;SDS011;45703;50.898;6.054;2023-07-31T06:53:34;7.90;;;2.80;;
59824;SDS011;45703;50.898;6.054;2023-07-31T06:56:00;8.43;;;2.40;;
59824;SDS011;45703;50.898;6.054;2023-07-31T06:58:25;8.52;;;2.70;;
59824;SDS011;45703;50.898;6.054;2023-07-31T07:00:50;8.13;;;2.78;;
59824;SDS011;45703;50.898;6.054;2023-07-31T07:03:18;7.93;;;3.20;;
59824;SDS011;45703;50.898;6.054;2023-07-31T07:05:43;7.25;;;2.63;;
59824;SDS011;45703;50.898;6.054;2023-07-31T07:08:09;8.05;;;2.50;;
59824;SDS011;45703;50.898;6.054;2023-07-31T07:10:34;8.13;;;2.60;;
59824;SDS011;45703;50.898;6.054;2023-07-31T07:13:00;9.20;;;3.10;;
59824;SDS011;45703;50.898;6.054;2023-07-31T07:15:25;7.85;;;3.15;;
59824;SDS011;45703;50.898;6.054;2023-07-31T07:17:51;8.23;;;2.63;;
59824;SDS011;45703;50.898;6.054;2023-07-31T07:20:16;8.27;;;2.75;;
59824;SDS011;45703;50.898;6.054;2023-07-31T07:22:41;8.25;;;2.83;;
59824;SDS011;45703;50.898;6.054;2023-07-31T07:25:08;8.13;;;2.70;;
59824;SDS011;45703;50.898;6.054;2023-07-31T07:27:34;10.02;;;2.53;;
59824;SDS011;45703;50.898;6.054;2023-07-31T07:29:59;8.40;;;2.70;;
59824;SDS011;45703;50.898;6.054;2023-07-31T07:32:25;7.65;;;2.80;;
59824;SDS011;45703;50.898;6.054;2023-07-31T07:34:50;9.90;;;3.08;;
59824;SDS011;45703;50.898;6.054;2023-07-31T07:37:16;7.32;;;2.65;;
59824;SDS011;45703;50.898;6.054;2023-07-31T07:39:42;8.65;;;2.97;;
59824;SDS011;45703;50.898;6.054;2023-07-31T07:42:07;7.57;;;2.88;;
59824;SDS011;45703;50.898;6.054;2023-07-31T07:44:32;7.88;;;3.13;;
59824;SDS011;45703;50.898;6.054;2023-07-31T07:46:58;9.73;;;2.95;;
59824;SDS011;45703;50.898;6.054;2023-07-31T07:49:23;7.65;;;3.05;;
59824;SDS011;45703;50.898;6.054;2023-07-31T07:51:49;7.20;;;2.95;;
59824;SDS011;45703;50.898;6.054;2023-07-31T07:54:14;8.88;;;3.03;;
59824;SDS011;45703;50.898;6.054;2023-07-31T07:56:41;9.10;;;3.05;;
59824;SDS011;45703;50.898;6.054;2023-07-31T07:59:08;8.15;;;2.70;;
59824;SDS011;45703;50.898;6.054;2023-07-31T08:01:33;8.43;;;2.92;;
59824;SDS011;45703;50.898;6.054;2023-07-31T08:03:59;7.40;;;2.67;;
59824;SDS011;45703;50.898;6.054;2023-07-31T08:06:25;8.88;;;2.80;;
59824;SDS011;45703;50.898;6.054;2023-07-31T08:08:51;7.38;;;3.10;;
59824;SDS011;45703;50.898;6.054;2023-07-31T08:11:16;8.27;;;2.83;;
59824;SDS011;45703;50.898;6.054;2023-07-31T08:13:41;8.10;;;2.95;;
59824;SDS011;45703;50.898;6.054;2023-07-31T08:16:07;8.32;;;2.65;;
59824;SDS011;45703;50.898;6.054;2023-07-31T08:18:32;9.23;;;2.95;;
59824;SDS011;45703;50.898;6.054;2023-07-31T08:20:58;9.15;;;2.95;;
59824;SDS011;45703;50.898;6.054;2023-07-31T08:23:23;7.35;;;2.78;;
59824;SDS011;45703;50.898;6.054;2023-07-31T08:25:49;7.38;;;2.67;;
59824;SDS011;45703;50.898;6.054;2023-07-31T08:28:15;8.43;;;2.70;;
59824;SDS011;45703;50.898;6.054;2023-07-31T08:30:41;8.38;;;2.72;;
59824;SDS011;45703;50.898;6.054;2023-07-31T08:33:07;8.30;;;2.53;;
59824;SDS011;45703;50.898;6.054;2023-07-31T08:35:32;9.00;;;2.80;;
59824;SDS011;45703;50.898;6.054;2023-07-31T08:37:57;9.30;;;2.92;;
59824;SDS011;45703;50.898;6.054;2023-07-31T08:40:23;9.18;;;2.97;;
59824;SDS011;45703;50.898;6.054;2023-07-31T08:42:49;8.35;;;2.65;;
59824;SDS011;45703;50.898;6.054;2023-07-31T08:45:18;8.00;;;2.78;;
59824;SDS011;45703;50.898;6.054;2023-07-31T08:47:46;8.25;;;2.80;;
59824;SDS011;45703;50.898;6.054;2023-07-31T08:50:13;7.10;;;2.42;;
59824;SDS011;45703;50.898;6.054;2023-07-31T08:52:39;7.28;;;2.70;;
59824;SDS011;45703;50.898;6.054;2023-07-31T08:55:05;8.45;;;3.17;;
59824;SDS011;45703;50.898;6.054;2023-07-31T08:57:31;7.43;;;2.60;;
59824;SDS011;45703;50.898;6.054;2023-07-31T08:59:59;7.30;;;2.65;;
59824;SDS011;45703;50.898;6.054;2023-07-31T09:02:26;8.05;;;2.83;;
59824;SDS011;45703;50.898;6.054;2023-07-31T09:04:59;7.90;;;2.85;;
59824;SDS011;45703;50.898;6.054;2023-07-31T09:07:25;7.65;;;2.78;;
59824;SDS011;45703;50.898;6.054;2023-07-31T09:09:51;7.50;;;2.88;;
59824;SDS011;45703;50.898;6.054;2023-07-31T09:12:16;8.20;;;2.85;;
59824;SDS011;45703;50.898;6.054;2023-07-31T09:14:42;8.90;;;3.15;;
59824;SDS011;45703;50.898;6.054;2023-07-31T09:17:10;9.00;;;2.88;;
59824;SDS011;45703;50.898;6.054;2023-07-31T09:19:35;8.18;;;3.20;;
59824;SDS011;45703;50.898;6.054;2023-07-31T09:22:05;9.55;;;2.97;;
59824;SDS011;45703;50.898;6.054;2023-07-31T09:24:32;8.85;;;2.92;;
59824;SDS011;45703;50.898;6.054;2023-07-31T09:26:59;9.10;;;3.08;;
59824;SDS011;45703;50.898;6.054;2023-07-31T09:29:25;7.90;;;2.80;;
59824;SDS011;45703;50.898;6.054;2023-07-31T09:31:52;7.88;;;2.90;;
59824;SDS011;45703;50.898;6.054;2023-07-31T09:34:18;8.82;;;2.88;;
59824;SDS011;45703;50.898;6.054;2023-07-31T09:36:48;8.18;;;3.00;;
59824;SDS011;45703;50.898;6.054;2023-07-31T09:39:16;7.63;;;3.05;;
59824;SDS011;45703;50.898;6.054;2023-07-31T09:41:43;8.55;;;3.17;;
59824;SDS011;45703;50.898;6.054;2023-07-31T09:44:10;7.80;;;3.13;;
59824;SDS011;45703;50.898;6.054;2023-07-31T09:46:36;9.18;;;3.35;;
59824;SDS011;45703;50.898;6.054;2023-07-31T09:51:31;8.90;;;2.90;;
59824;SDS011;45703;50.898;6.054;2023-07-31T09:53:57;7.57;;;3.00;;
59824;SDS011;45703;50.898;6.054;2023-07-31T09:56:22;9.23;;;2.67;;
59824;SDS011;45703;50.898;6.054;2023-07-31T09:58:48;8.23;;;3.00;;
59824;SDS011;45703;50.898;6.054;2023-07-31T10:01:15;7.13;;;2.40;;
59824;SDS011;45703;50.898;6.054;2023-07-31T10:03:40;8.65;;;2.80;;
59824;SDS011;45703;50.898;6.054;2023-07-31T10:06:10;6.45;;;2.30;;
59824;SDS011;45703;50.898;6.054;2023-07-31T10:08:38;8.65;;;2.38;;
59824;SDS011;45703;50.898;6.054;2023-07-31T10:11:05;7.17;;;2.40;;
59824;SDS011;45703;50.898;6.054;2023-07-31T10:13:34;7.55;;;2.35;;
59824;SDS011;45703;50.898;6.054;2023-07-31T10:16:00;7.68;;;2.22;;
59824;SDS011;45703;50.898;6.054;2023-07-31T10:18:26;6.38;;;2.10;;
59824;SDS011;45703;50.898;6.054;2023-07-31T10:20:54;6.72;;;2.38;;
59824;SDS011;45703;50.898;6.054;2023-07-31T10:23:20;7.20;;;2.40;;
59824;SDS011;45703;50.898;6.054;2023-07-31T10:25:46;7.45;;;2.67;;
59824;SDS011;45703;50.898;6.054;2023-07-31T10:28:13;6.20;;;1.85;;
59824;SDS011;45703;50.898;6.054;2023-07-31T10:30:39;6.78;;;1.80;;
59824;SDS011;45703;50.898;6.054;2023-07-31T10:33:05;6.10;;;1.85;;
59824;SDS011;45703;50.898;6.054;2023-07-31T10:35:32;5.45;;;1.48;;
59824;SDS011;45703;50.898;6.054;2023-07-31T10:38:08;5.22;;;1.40;;
59824;SDS011;45703;50.898;6.054;2023-07-31T10:40:36;6.35;;;1.70;;
59824;SDS011;45703;50.898;6.054;2023-07-31T10:43:02;5.40;;;1.80;;
59824;SDS011;45703;50.898;6.054;2023-07-31T10:45:38;5.72;;;1.88;;
59824;SDS011;45703;50.898;6.054;2023-07-31T10:48:07;5.72;;;1.90;;
59824;SDS011;45703;50.898;6.054;2023-07-31T10:50:38;5.18;;;1.80;;
59824;SDS011;45703;50.898;6.054;2023-07-31T10:53:22;5.72;;;1.67;;
59824;SDS011;45703;50.898;6.054;2023-07-31T10:55:49;4.78;;;1.80;;
59824;SDS011;45703;50.898;6.054;2023-07-31T10:58:17;5.65;;;1.58;;
59824;SDS011;45703;50.898;6.054;2023-07-31T11:00:44;5.55;;;1.55;;
59824;SDS011;45703;50.898;6.054;2023-07-31T11:03:11;5.82;;;1.80;;
59824;SDS011;45703;50.898;6.054;2023-07-31T11:08:21;6.22;;;1.83;;
59824;SDS011;45703;50.898;6.054;2023-07-31T11:10:49;5.40;;;1.38;;
59824;SDS011;45703;50.898;6.054;2023-07-31T11:13:16;5.57;;;1.60;;
59824;SDS011;45703;50.898;6.054;2023-07-31T11:15:42;5.50;;;1.60;;
59824;SDS011;45703;50.898;6.054;2023-07-31T11:18:07;5.30;;;1.58;;
59824;SDS011;45703;50.898;6.054;2023-07-31T11:20:36;6.05;;;1.90;;
59824;SDS011;45703;50.898;6.054;2023-07-31T11:23:04;5.72;;;1.73;;
59824;SDS011;45703;50.898;6.054;2023-07-31T11:25:32;6.38;;;1.70;;
59824;SDS011;45703;50.898;6.054;2023-07-31T11:28:10;6.25;;;2.13;;
59824;SDS011;45703;50.898;6.054;2023-07-31T11:30:40;7.53;;;2.00;;
59824;SDS011;45703;50.898;6.054;2023-07-31T11:33:07;7.25;;;1.98;;
59824;SDS011;45703;50.898;6.054;2023-07-31T11:35:34;6.43;;;2.10;;
59824;SDS011;45703;50.898;6.054;2023-07-31T11:38:01;5.70;;;2.17;;
59824;SDS011;45703;50.898;6.054;2023-07-31T11:40:27;5.88;;;2.00;;
59824;SDS011;45703;50.898;6.054;2023-07-31T11:42:57;6.22;;;2.08;;
59824;SDS011;45703;50.898;6.054;2023-07-31T11:45:29;6.40;;;2.15;;
59824;SDS011;45703;50.898;6.054;2023-07-31T11:47:55;7.20;;;2.20;;
59824;SDS011;45703;50.898;6.054;2023-07-31T11:50:21;6.38;;;2.03;;
59824;SDS011;45703;50.898;6.054;2023-07-31T11:52:50;6.68;;;2.25;;
59824;SDS011;45703;50.898;6.054;2023-07-31T11:55:20;6.43;;;2.33;;
59824;SDS011;45703;50.898;6.054;2023-07-31T11:57:45;6.68;;;2.38;;
59824;SDS011;45703;50.898;6.054;2023-07-31T12:00:12;6.40;;;2.40;;
59824;SDS011;45703;50.898;6.054;2023-07-31T12:02:39;6.50;;;2.38;;
59824;SDS011;45703;50.898;6.054;2023-07-31T12:05:06;6.43;;;2.40;;
59824;SDS011;45703;50.898;6.054;2023-07-31T12:07:45;7.07;;;2.45;;
59824;SDS011;45703;50.898;6.054;2023-07-31T12:10:28;6.80;;;2.53;;
59824;SDS011;45703;50.898;6.054;2023-07-31T12:13:04;7.28;;;2.75;;
59824;SDS011;45703;50.898;6.054;2023-07-31T12:15:41;8.18;;;2.60;;
59824;SDS011;45703;50.898;6.054;2023-07-31T12:18:15;8.80;;;2.80;;
59824;SDS011;45703;50.898;6.054;2023-07-31T12:21:05;7.43;;;2.35;;
59824;SDS011;45703;50.898;6.054;2023-07-31T12:23:31;8.07;;;2.88;;
59824;SDS011;45703;50.898;6.054;2023-07-31T12:26:06;7.97;;;2.60;;
59824;SDS011;45703;50.898;6.054;2023-07-31T12:28:35;7.85;;;2.63;;
59824;SDS011;45703;50.898;6.054;2023-07-31T12:31:12;7.38;;;2.55;;
59824;SDS011;45703;50.898;6.054;2023-07-31T12:36:07;6.72;;;2.70;;
59824;SDS011;45703;50.898;6.054;2023-07-31T12:38:34;6.70;;;2.72;;
59824;SDS011;45703;50.898;6.054;2023-07-31T12:40:59;7.88;;;3.00;;
59824;SDS011;45703;50.898;6.054;2023-07-31T12:43:25;7.93;;;2.65;;
59824;SDS011;45703;50.898;6.054;2023-07-31T12:45:50;7.53;;;2.95;;
59824;SDS011;45703;50.898;6.054;2023-07-31T12:48:16;6.78;;;3.05;;
59824;SDS011;45703;50.898;6.054;2023-07-31T12:50:44;6.75;;;2.60;;
59824;SDS011;45703;50.898;6.054;2023-07-31T12:53:09;6.90;;;2.80;;
59824;SDS011;45703;50.898;6.054;2023-07-31T12:55:34;8.43;;;3.25;;
59824;SDS011;45703;50.898;6.054;2023-07-31T12:58:01;7.60;;;2.97;;
59824;SDS011;45703;50.898;6.054;2023-07-31T13:00:27;7.35;;;2.80;;
59824;SDS011;45703;50.898;6.054;2023-07-31T13:02:52;8.27;;;2.70;;
59824;SDS011;45703;50.898;6.054;2023-07-31T13:05:18;8.43;;;2.80;;
59824;SDS011;45703;50.898;6.054;2023-07-31T13:07:45;6.93;;;2.75;;
59824;SDS011;45703;50.898;6.054;2023-07-31T13:10:11;7.25;;;2.65;;
59824;SDS011;45703;50.898;6.054;2023-07-31T13:12:36;6.38;;;2.50;;
59824;SDS011;45703;50.898;6.054;2023-07-31T13:15:02;6.53;;;2.42;;
59824;SDS011;45703;50.898;6.054;2023-07-31T13:17:56;7.53;;;2.67;;
59824;SDS011;45703;50.898;6.054;2023-07-31T13:20:24;7.28;;;2.90;;
59824;SDS011;45703;50.898;6.054;2023-07-31T13:22:50;6.55;;;2.55;;
59824;SDS011;45703;50.898;6.054;2023-07-31T13:25:15;5.97;;;2.38;;
59824;SDS011;45703;50.898;6.054;2023-07-31T13:27:40;6.10;;;2.33;;
59824;SDS011;45703;50.898;6.054;2023-07-31T13:30:06;7.40;;;2.65;;
59824;SDS011;45703;50.898;6.054;2023-07-31T13:32:32;6.75;;;2.63;;
59824;SDS011;45703;50.898;6.054;2023-07-31T13:34:57;6.70;;;2.47;;
59824;SDS011;45703;50.898;6.054;2023-07-31T13:37:24;7.00;;;2.53;;
59824;SDS011;45703;50.898;6.054;2023-07-31T13:39:49;6.75;;;2.42;;
59824;SDS011;45703;50.898;6.054;2023-07-31T13:42:15;7.32;;;2.60;;
59824;SDS011;45703;50.898;6.054;2023-07-31T13:44:41;6.90;;;2.63;;
59824;SDS011;45703;50.898;6.054;2023-07-31T13:47:07;7.35;;;2.80;;
59824;SDS011;45703;50.898;6.054;2023-07-31T13:49:33;7.13;;;3.03;;
59824;SDS011;45703;50.898;6.054;2023-07-31T13:52:07;7.13;;;3.00;;
59824;SDS011;45703;50.898;6.054;2023-07-31T13:54:37;8.18;;;3.53;;
59824;SDS011;45703;50.898;6.054;2023-07-31T13:57:02;9.80;;;3.63;;
59824;SDS011;45703;50.898;6.054;2023-07-31T13:59:28;8.38;;;3.50;;
59824;SDS011;45703;50.898;6.054;2023-07-31T14:01:53;7.97;;;3.42;;
59824;SDS011;45703;50.898;6.054;2023-07-31T14:04:19;9.32;;;3.40;;
59824;SDS011;45703;50.898;6.054;2023-07-31T14:06:44;9.02;;;3.72;;
59824;SDS011;45703;50.898;6.054;2023-07-31T14:09:17;7.60;;;3.20;;
59824;SDS011;45703;50.898;6.054;2023-07-31T14:11:52;8.57;;;3.28;;
59824;SDS011;45703;50.898;6.054;2023-07-31T14:14:17;8.60;;;3.63;;
59824;SDS011;45703;50.898;6.054;2023-07-31T14:16:44;7.68;;;3.05;;
59824;SDS011;45703;50.898;6.054;2023-07-31T14:19:12;7.97;;;3.17;;
59824;SDS011;45703;50.898;6.054;2023-07-31T14:21:39;7.38;;;3.50;;
59824;SDS011;45703;50.898;6.054;2023-07-31T14:24:05;7.28;;;3.50;;
59824;SDS011;45703;50.898;6.054;2023-07-31T14:26:30;7.72;;;3.45;;
59824;SDS011;45703;50.898;6.054;2023-07-31T14:28:56;8.63;;;3.80;;
59824;SDS011;45703;50.898;6.054;2023-07-31T14:31:21;9.25;;;3.40;;
59824;SDS011;45703;50.898;6.054;2023-07-31T14:33:46;8.10;;;3.28;;
59824;SDS011;45703;50.898;6.054;2023-07-31T14:36:12;8.93;;;3.42;;
59824;SDS011;45703;50.898;6.054;2023-07-31T14:38:37;9.90;;;3.85;;
59824;SDS011;45703;50.898;6.054;2023-07-31T14:41:03;7.35;;;3.35;;
59824;SDS011;45703;50.898;6.054;2023-07-31T14:43:28;7.68;;;3.42;;
59824;SDS011;45703;50.898;6.054;2023-07-31T14:45:53;8.07;;;3.60;;
59824;SDS011;45703;50.898;6.054;2023-07-31T14:48:22;8.02;;;3.60;;
59824;SDS011;45703;50.898;6.054;2023-07-31T14:50:48;7.57;;;3.35;;
59824;SDS011;45703;50.898;6.054;2023-07-31T14:53:13;8.77;;;3.45;;
59824;SDS011;45703;50.898;6.054;2023-07-31T14:55:39;9.32;;;3.38;;
59824;SDS011;45703;50.898;6.054;2023-07-31T14:58:04;8.95;;;3.65;;
59824;SDS011;45703;50.898;6.054;2023-07-31T15:00:29;7.72;;;3.17;;
59824;SDS011;45703;50.898;6.054;2023-07-31T15:02:55;10.73;;;4.10;;